Pagina principală
METAR-TAF:

METAR-TAF

Aeroporturi :

Kwajalein, Insulele Marshall

Latitudine: 08-43N, longitudine: 167-44E, elevație: 3 m

Observații meteo curente

Raportul a fost făcut în urmă cu 6 de minute, la 09:20 UTC
Vânt 15 kt de la Nord-est
Temperatură 28°C
Umiditate 74%
Presiune 1011 hPa
Vizibilitate: 16.1 km
Nori împrăștiați la o înălțime de 2500 picior
Nori împrăștiați la o înălțime de 3100 picior
Nori fragmentați la o înălțime de 4400 picior

METAR: PKWA 290920Z AUTO 05015KT 10SM SCT025 SCT031 BKN044 28/23 A2984 RMK AO2 T02780229

Ora: 21:26 (09:26 UTC)

Prognoză

Raportul a fost făcut în urmă cu 4 ore și 1 de minute, la 05:25 UTC
Prognoză valabilă de la 29 ora 06 UTC la 30 ora 06 UTC
Vânt 15 kt de la Est/Nord-est
Vizibilitate: 10 km
Nori împrăștiați la o înălțime de 2500 picior
Nori fragmentați la o înălțime de 12000 picior
averse în apropiere

TAF: PKWA 290525Z 2906/3006 06015KT P6SM VCSH SCT025 BKN120

Observații și prognoze meteo pentru peste 4.000 de aeroporturi (rapoarte METAR și TAF).

Stațiile disponibile sunt reprezentate pe hartă prin puncte galbene și roșii.

Țineți indicatorul mouse-ului pe punctul dorit pentru a vedea denumirea stației.

Apoi, faceți clic pentru a vedea observațiile și prognozele meteorologice.

Pentru a schimba harta: Pentru mărire, faceți clic pe butoanele verzi cu cruce neagră; pentru micșorare, pe butonul verde cu o liniuță; pentru hărți învecinate, pe săgețile verzi.


METAR-TAF: